Time;durP1;ratioP1;P1;durP2;ratioP2;P2;SDS_P1;SDS_P2;PMS_P1;PMS_P2;Temp;Humidity;BMP_temperature;BMP_pressure;BME280_temperature;BME280_humidity;BME280_pressure;Samples;Min_cycle;Max_cycle;Signal;HPM_P1;HPM_P2
2023/10/24 00:00:27;;;;;;;0.98;0.95;;;;;;;8.96;100.00;95172.38;1019202;29;20027;-73
2023/10/24 00:00:57;;;;;;;1.85;1.75;;;;;;;9.00;100.00;95179.69;1023127;29;20027;-75
2023/10/24 00:01:28;;;;;;;1.25;0.85;;;;;;;8.98;100.00;95185.19;1023218;29;20030;-74
2023/10/24 00:01:58;;;;;;;1.45;1.35;;;;;;;8.97;100.00;95173.16;1023277;28;20479;-72
2023/10/24 00:02:29;;;;;;;0.70;0.70;;;;;;;8.94;100.00;95171.06;1027187;28;20198;-74
2023/10/24 00:02:59;;;;;;;1.17;1.13;;;;;;;8.92;100.00;95179.19;1025021;28;20031;-74
2023/10/24 00:03:30;;;;;;;1.40;1.05;;;;;;;8.92;100.00;95181.00;1019399;29;20023;-74
2023/10/24 00:04:00;;;;;;;1.38;1.35;;;;;;;8.97;100.00;95178.38;1023153;29;20039;-73
2023/10/24 00:04:31;;;;;;;0.88;0.88;;;;;;;8.93;100.00;95185.22;1026996;28;20469;-73
2023/10/24 00:05:01;;;;;;;0.35;0.35;;;;;;;8.92;100.00;95186.22;1027275;28;20502;-73
2023/10/24 00:05:32;;;;;;;0.38;0.38;;;;;;;8.93;100.00;95190.44;1027254;28;20564;-73
2023/10/24 00:06:03;;;;;;;0.73;0.73;;;;;;;8.89;100.00;95182.34;1027224;28;20037;-73
2023/10/24 00:06:33;;;;;;;0.63;0.63;;;;;;;8.91;100.00;95185.47;1031057;28;20082;-74
2023/10/24 00:07:04;;;;;;;0.75;0.75;;;;;;;8.86;100.00;95176.84;1031036;28;20329;-74
2023/10/24 00:07:34;;;;;;;0.82;0.82;;;;;;;8.89;100.00;95178.94;1031273;28;20026;-73
2023/10/24 00:08:05;;;;;;;2.30;1.15;;;;;;;8.90;100.00;95193.59;1031110;28;20477;-75
2023/10/24 00:08:35;;;;;;;1.55;0.90;;;;;;;8.90;100.00;95183.13;1027067;28;20554;-74
2023/10/24 00:09:06;;;;;;;0.73;0.43;;;;;;;8.85;100.00;95181.31;1023193;29;20031;-73
2023/10/24 00:09:36;;;;;;;0.95;0.65;;;;;;;8.90;100.00;95190.97;1026749;28;20026;-73
2023/10/24 00:10:07;;;;;;;1.65;1.20;;;;;;;8.88;100.00;95196.44;1022819;28;20027;-75
2023/10/24 00:10:37;;;;;;;0.70;0.68;;;;;;;8.88;100.00;95198.28;1023277;29;20039;-73
2023/10/24 00:11:08;;;;;;;0.55;0.55;;;;;;;8.88;100.00;95206.13;1023319;28;20031;-74
2023/10/24 00:11:38;;;;;;;1.38;1.27;;;;;;;8.81;100.00;95185.47;1031104;28;20030;-72
2023/10/24 00:12:09;;;;;;;0.60;0.60;;;;;;;8.88;100.00;95200.91;1031169;28;20089;-74
2023/10/24 00:12:39;;;;;;;0.57;0.57;;;;;;;8.80;100.00;95188.38;1027041;28;20122;-74
2023/10/24 00:13:10;;;;;;;0.32;0.32;;;;;;;8.83;100.00;95188.63;1023060;29;20649;-73
2023/10/24 00:13:40;;;;;;;0.65;0.65;;;;;;;8.81;100.00;95193.31;1023298;29;20093;-74
2023/10/24 00:14:10;;;;;;;1.33;1.23;;;;;;;8.88;100.00;95195.66;1019062;29;20035;-75
2023/10/24 00:14:42;;;;;;;0.75;0.75;;;;;;;8.86;100.00;95190.72;1019028;29;20024;-74
2023/10/24 00:15:12;;;;;;;0.63;0.63;;;;;;;8.84;100.00;95198.03;1023014;29;20544;-73
2023/10/24 00:15:42;;;;;;;1.45;1.35;;;;;;;8.86;100.00;95188.09;1019569;28;20271;-75
2023/10/24 00:16:13;;;;;;;0.60;0.60;;;;;;;8.82;100.00;95191.50;1023321;28;20039;-73
2023/10/24 00:16:44;;;;;;;0.57;0.57;;;;;;;8.83;100.00;95193.06;1026976;28;20030;-76
2023/10/24 00:17:14;;;;;;;1.35;1.25;;;;;;;8.77;100.00;95184.44;1023364;28;20027;-74
2023/10/24 00:17:45;;;;;;;2.20;0.73;;;;;;;8.76;100.00;95171.66;1023162;29;20027;-73
2023/10/24 00:18:15;;;;;;;0.35;0.35;;;;;;;8.82;100.00;95176.59;1023042;29;20027;-72
2023/10/24 00:18:47;;;;;;;1.00;0.32;;;;;;;8.81;100.00;95184.69;1019359;29;20032;-73
2023/10/24 00:19:17;;;;;;;1.52;1.38;;;;;;;8.77;100.00;95173.97;1023026;29;20543;-74
2023/10/24 00:19:47;;;;;;;0.15;0.15;;;;;;;8.84;100.00;95178.94;1010649;29;20385;-74
2023/10/24 00:20:18;;;;;;;0.73;0.73;;;;;;;8.79;100.00;95173.72;1015493;29;20100;-74
2023/10/24 00:20:48;;;;;;;5.45;0.80;;;;;;;8.74;100.00;95167.44;1019033;29;20076;-74
2023/10/24 00:21:19;;;;;;;0.40;0.40;;;;;;;8.80;100.00;95177.91;1019317;29;20059;-73
2023/10/24 00:21:49;;;;;;;1.27;1.27;;;;;;;8.72;100.00;95161.72;1024716;28;20541;-72
2023/10/24 00:22:20;;;;;;;0.40;0.40;;;;;;;8.77;100.00;95162.75;1019036;29;20036;-74
2023/10/24 00:22:50;;;;;;;0.52;0.52;;;;;;;8.71;100.00;95154.88;1019225;29;20031;-74
2023/10/24 00:23:21;;;;;;;0.60;0.60;;;;;;;8.76;100.00;95158.56;1023079;28;20495;-74
2023/10/24 00:23:52;;;;;;;1.08;0.98;;;;;;;8.76;100.00;95150.72;1023059;28;20034;-75
2023/10/24 00:24:22;;;;;;;7.05;1.23;;;;;;;8.76;100.00;95151.50;1027299;28;20109;-72
2023/10/24 00:24:52;;;;;;;0.70;0.60;;;;;;;8.72;100.00;95146.00;1030820;28;20383;-72
2023/10/24 00:25:23;;;;;;;1.13;1.05;;;;;;;8.69;100.00;95149.16;1027091;28;20039;-73
2023/10/24 00:25:53;;;;;;;0.47;0.40;;;;;;;8.68;100.00;95142.34;1031158;28;20026;-75
2023/10/24 00:26:24;;;;;;;0.70;0.63;;;;;;;8.70;100.00;95148.09;1031096;28;20030;-74
2023/10/24 00:26:55;;;;;;;0.22;0.22;;;;;;;8.69;100.00;95151.78;1026981;28;20541;-74
2023/10/24 00:27:26;;;;;;;0.68;0.68;;;;;;;8.69;100.00;95151.78;1031034;28;20023;-73
2023/10/24 00:27:56;;;;;;;1.40;1.30;;;;;;;8.68;100.00;95150.19;1023044;29;20770;-73
2023/10/24 00:28:26;;;;;;;0.47;0.47;;;;;;;8.61;100.00;95149.69;1028397;28;20190;-74
2023/10/24 00:28:57;;;;;;;0.85;0.85;;;;;;;8.62;100.00;95155.72;1027086;28;20031;-75
2023/10/24 00:29:28;;;;;;;0.77;0.77;;;;;;;8.62;100.00;95156.50;1027028;28;20035;-72
2023/10/24 00:29:58;;;;;;;0.40;0.40;;;;;;;8.63;100.00;95160.66;1026476;28;20031;-73
2023/10/24 00:30:29;;;;;;;0.45;0.45;;;;;;;8.56;100.00;95151.53;1031094;28;20528;-74
2023/10/24 00:30:59;;;;;;;0.52;0.52;;;;;;;8.61;100.00;95164.59;1031022;28;20089;-73
2023/10/24 00:31:30;;;;;;;0.40;0.40;;;;;;;8.57;100.00;95155.72;1027170;28;20147;-74
2023/10/24 00:32:00;;;;;;;0.73;0.60;;;;;;;8.55;100.00;95156.00;1023093;28;20054;-73
2023/10/24 00:32:31;;;;;;;0.65;0.50;;;;;;;8.59;100.00;95164.09;1022997;29;20032;-74
2023/10/24 00:33:01;;;;;;;0.30;0.30;;;;;;;8.59;100.00;95159.63;1022959;28;20522;-76
2023/10/24 00:33:32;;;;;;;0.98;0.90;;;;;;;8.58;100.00;95160.66;1015047;29;20047;-73
2023/10/24 00:34:02;;;;;;;1.65;1.00;;;;;;;8.58;100.00;95165.09;1015064;29;20043;-73
2023/10/24 00:34:33;;;;;;;1.10;0.70;;;;;;;8.59;100.00;95164.88;1015283;29;20416;-73
2023/10/24 00:35:04;;;;;;;1.05;1.05;;;;;;;8.52;100.00;95153.91;1023142;28;20027;-75
2023/10/24 00:35:34;;;;;;;0.98;0.57;;;;;;;8.55;100.00;95161.22;1026978;28;20123;-72
2023/10/24 00:36:05;;;;;;;0.98;0.95;;;;;;;8.57;100.00;95158.31;1023105;29;20275;-73
2023/10/24 00:36:35;;;;;;;0.75;0.75;;;;;;;8.51;100.00;95149.69;1022824;28;20075;-74
2023/10/24 00:37:06;;;;;;;0.80;0.80;;;;;;;8.52;100.00;95150.47;1022315;29;20091;-74
2023/10/24 00:37:36;;;;;;;1.85;1.58;;;;;;;8.56;100.00;95157.53;1022947;29;20030;-76
2023/10/24 00:38:07;;;;;;;0.30;0.30;;;;;;;8.56;100.00;95154.16;1022992;29;20020;-73
2023/10/24 00:38:37;;;;;;;0.38;0.35;;;;;;;8.54;100.00;95154.41;1026906;28;20038;-74
2023/10/24 00:39:08;;;;;;;0.13;0.13;;;;;;;8.54;100.00;95146.56;1026928;28;20718;-74
2023/10/24 00:39:39;;;;;;;1.40;0.98;;;;;;;8.45;100.00;95133.25;1018599;29;20435;-75
2023/10/24 00:40:10;;;;;;;2.47;1.58;;;;;;;8.52;100.00;95140.81;1018823;29;20034;-75
2023/10/24 00:40:40;;;;;;;0.28;0.28;;;;;;;8.51;100.00;95141.84;1022965;29;20098;-74
2023/10/24 00:41:11;;;;;;;0.40;0.40;;;;;;;8.47;100.00;95130.34;1015102;29;20664;-73
2023/10/24 00:41:41;;;;;;;0.45;0.45;;;;;;;8.51;100.00;95139.22;1023004;29;20031;-75
2023/10/24 00:42:12;;;;;;;0.88;0.63;;;;;;;8.50;100.00;95135.06;1026819;28;20253;-74
2023/10/24 00:42:42;;;;;;;0.50;0.50;;;;;;;8.54;100.00;95143.16;1031141;28;20026;-74
2023/10/24 00:43:13;;;;;;;0.28;0.28;;;;;;;8.55;100.00;95144.72;1031010;28;20041;-73
2023/10/24 00:43:43;;;;;;;1.13;1.10;;;;;;;8.49;100.00;95146.56;1014906;29;20028;-73
2023/10/24 00:44:14;;;;;;;0.47;0.47;;;;;;;8.53;100.00;95152.84;1019103;29;20030;-75
2023/10/24 00:44:45;;;;;;;3.55;0.68;;;;;;;8.52;100.00;95147.84;1026983;28;20029;-72
2023/10/24 00:45:15;;;;;;;0.20;0.20;;;;;;;8.51;100.00;95149.69;1027022;28;20828;-74
2023/10/24 00:45:46;;;;;;;0.30;0.30;;;;;;;8.49;100.00;95151.81;1022918;29;20067;-73
2023/10/24 00:46:16;;;;;;;1.75;0.93;;;;;;;8.49;100.00;95146.56;1019108;29;20115;-74
2023/10/24 00:46:47;;;;;;;1.48;0.45;;;;;;;8.48;100.00;95145.78;1022981;29;20027;-72
2023/10/24 00:47:17;;;;;;;2.40;1.05;;;;;;;8.45;100.00;95142.91;1027049;28;20034;-74
2023/10/24 00:47:48;;;;;;;1.38;0.47;;;;;;;8.44;100.00;95136.09;1022946;29;20106;-75
2023/10/24 00:48:18;;;;;;;0.43;0.43;;;;;;;8.44;100.00;95139.50;1019039;29;20311;-74
2023/10/24 00:48:49;;;;;;;0.90;0.30;;;;;;;8.41;100.00;95131.41;1015089;29;20092;-75
2023/10/24 00:49:19;;;;;;;0.70;0.57;;;;;;;8.41;100.00;95128.78;1023123;29;20019;-74
2023/10/24 00:49:51;;;;;;;2.38;0.75;;;;;;;8.41;100.00;95134.78;1018394;29;20024;-73
2023/10/24 00:50:21;;;;;;;0.85;0.85;;;;;;;8.43;100.00;95137.16;1023326;28;20070;-73
2023/10/24 00:50:52;;;;;;;0.40;0.40;;;;;;;8.45;100.00;95129.81;1026742;28;20536;-73
2023/10/24 00:51:23;;;;;;;0.65;0.65;;;;;;;8.46;100.00;95126.19;1023095;28;20666;-73
2023/10/24 00:51:54;;;;;;;1.75;1.40;;;;;;;8.45;100.00;95130.63;1018939;29;20487;-74
2023/10/24 00:52:24;;;;;;;1.33;0.88;;;;;;;8.38;100.00;95124.09;1018904;29;20417;-74
2023/10/24 00:52:55;;;;;;;2.55;1.52;;;;;;;8.45;100.00;95129.81;1026931;28;20845;-74
2023/10/24 00:53:26;;;;;;;0.55;0.47;;;;;;;8.45;100.00;95129.81;1023091;29;20031;-76
2023/10/24 00:53:56;;;;;;;0.40;0.40;;;;;;;8.40;100.00;95127.22;1030800;28;20519;-72
2023/10/24 00:54:27;;;;;;;2.20;0.85;;;;;;;8.40;100.00;95128.00;1026963;28;20086;-73
2023/10/24 00:54:57;;;;;;;1.23;1.08;;;;;;;8.41;100.00;95128.78;1022965;29;20027;-76
2023/10/24 00:55:29;;;;;;;1.05;0.68;;;;;;;8.41;100.00;95128.78;1018956;29;20028;-74
2023/10/24 00:56:00;;;;;;;1.75;1.08;;;;;;;8.41;100.00;95134.03;1015058;29;20020;-75
2023/10/24 00:56:30;;;;;;;1.98;0.88;;;;;;;8.47;100.00;95143.44;1014957;29;20268;-74
2023/10/24 00:57:03;;;;;;;0.47;0.47;;;;;;;8.45;100.00;95141.09;1019035;29;20023;-74
2023/10/24 00:57:34;;;;;;;0.50;0.50;;;;;;;8.40;100.00;95135.84;1014943;29;20024;-73
2023/10/24 00:58:04;;;;;;;1.15;1.13;;;;;;;8.45;100.00;95140.28;1018569;29;20690;-74
2023/10/24 00:58:35;;;;;;;1.23;0.82;;;;;;;8.47;100.00;95146.03;1019068;29;20031;-76
2023/10/24 00:59:06;;;;;;;0.45;0.45;;;;;;;8.47;100.00;95143.44;1022928;29;20027;-75
2023/10/24 00:59:37;;;;;;;0.43;0.43;;;;;;;8.49;100.00;95151.81;1028760;28;20018;-75
2023/10/24 01:00:08;;;;;;;2.88;0.88;;;;;;;8.40;100.00;95135.84;1026715;28;20151;-76
2023/10/24 01:00:40;;;;;;;0.22;0.22;;;;;;;8.40;100.00;95135.06;1022830;29;20265;-75
2023/10/24 01:01:12;;;;;;;1.45;1.10;;;;;;;8.48;100.00;95152.84;1022726;29;20270;-72
2023/10/24 01:01:42;;;;;;;0.30;0.30;;;;;;;8.41;100.00;95139.25;1023077;29;20258;-75
2023/10/24 01:02:13;;;;;;;0.93;0.68;;;;;;;8.42;100.00;95141.63;1019202;29;20314;-74
2023/10/24 01:02:43;;;;;;;0.40;0.40;;;;;;;8.46;100.00;95152.31;1023130;29;20110;-74
2023/10/24 01:03:14;;;;;;;0.35;0.35;;;;;;;8.46;100.00;95145.25;1026837;28;20053;-76
2023/10/24 01:03:45;;;;;;;0.40;0.40;;;;;;;8.48;100.00;95150.22;1015097;29;20027;-74
2023/10/24 01:04:18;;;;;;;0.32;0.32;;;;;;;8.39;100.00;95136.13;1019149;29;20012;-73
2023/10/24 01:04:48;;;;;;;0.50;0.50;;;;;;;8.45;100.00;95146.31;1022815;29;20377;-75
2023/10/24 01:05:18;;;;;;;1.65;1.27;;;;;;;8.38;100.00;95134.53;1022973;29;20360;-75
2023/10/24 01:05:49;;;;;;;1.75;0.60;;;;;;;8.45;100.00;95140.28;1019201;29;20028;-75
2023/10/24 01:06:19;;;;;;;0.25;0.25;;;;;;;8.42;100.00;95128.53;1019129;29;20100;-75
2023/10/24 01:06:50;;;;;;;1.00;0.98;;;;;;;8.46;100.00;95141.88;1023013;28;20019;-74
2023/10/24 01:07:20;;;;;;;0.20;0.20;;;;;;;8.47;100.00;95138.19;1027288;28;20078;-74
2023/10/24 01:07:51;;;;;;;1.33;1.15;;;;;;;8.44;100.00;95139.50;1034944;28;20470;-74
2023/10/24 01:08:21;;;;;;;0.43;0.43;;;;;;;8.43;100.00;95137.16;1026757;28;20038;-73
2023/10/24 01:08:52;;;;;;;0.75;0.75;;;;;;;8.47;100.00;95146.03;1022864;29;20027;-75
2023/10/24 01:09:22;;;;;;;0.73;0.73;;;;;;;8.49;100.00;95149.97;1019241;29;20032;-73
2023/10/24 01:09:53;;;;;;;0.73;0.73;;;;;;;8.50;100.00;95150.75;1018481;29;20024;-73
2023/10/24 01:10:23;;;;;;;1.08;0.80;;;;;;;8.48;100.00;95145.00;1027212;28;20078;-73
2023/10/24 01:10:54;;;;;;;0.95;0.63;;;;;;;8.52;100.00;95142.63;1023040;28;20378;-73
2023/10/24 01:11:24;;;;;;;1.27;1.10;;;;;;;8.54;100.00;95146.56;1022991;29;20078;-73
2023/10/24 01:11:55;;;;;;;1.25;1.15;;;;;;;8.53;100.00;95139.75;1031081;28;20022;-74
2023/10/24 01:12:25;;;;;;;0.77;0.55;;;;;;;8.58;100.00;95147.59;1026896;28;20018;-74
2023/10/24 01:12:56;;;;;;;0.45;0.45;;;;;;;8.54;100.00;95138.72;1027019;28;20506;-74
2023/10/24 01:13:26;;;;;;;0.90;0.90;;;;;;;8.56;100.00;95141.84;1022837;28;20278;-74
2023/10/24 01:13:59;;;;;;;0.75;0.52;;;;;;;8.54;100.00;95135.31;1019155;29;20063;-73
2023/10/24 01:14:29;;;;;;;1.95;1.10;;;;;;;8.54;100.00;95133.47;1023072;29;20110;-73
2023/10/24 01:15:00;;;;;;;0.73;0.73;;;;;;;8.59;100.00;95141.31;1024983;28;20805;-74
2023/10/24 01:15:30;;;;;;;2.85;0.95;;;;;;;8.58;100.00;95137.13;1026885;28;20069;-76
2023/10/24 01:16:00;;;;;;;0.73;0.73;;;;;;;8.59;100.00;95140.56;1023227;28;20031;-74
2023/10/24 01:16:41;;;;;;;0.85;0.85;;;;;;;8.60;100.00;95148.13;1026959;28;20066;-73
2023/10/24 01:17:12;;;;;;;1.52;0.90;;;;;;;8.57;100.00;95143.41;1026976;28;20038;-74
2023/10/24 01:17:49;;;;;;;0.65;0.65;;;;;;;8.54;100.00;95140.53;1015022;29;20024;-73
2023/10/24 01:18:20;;;;;;;0.43;0.30;;;;;;;8.59;100.00;95149.19;1018544;29;20315;-74
2023/10/24 01:18:50;;;;;;;0.60;0.60;;;;;;;8.59;100.00;95151.78;1022862;29;20331;-74
2023/10/24 01:19:21;;;;;;;0.93;0.75;;;;;;;8.61;100.00;95148.91;1021943;29;20035;-75
2023/10/24 01:19:51;;;;;;;1.65;0.93;;;;;;;8.60;100.00;95142.09;1018363;29;20020;-75
2023/10/24 01:20:22;;;;;;;1.65;1.15;;;;;;;8.56;100.00;95135.84;1022864;28;20043;-74
2023/10/24 01:20:53;;;;;;;0.10;0.10;;;;;;;8.61;100.00;95149.69;1022897;28;20092;-74
2023/10/24 01:21:23;;;;;;;0.50;0.47;;;;;;;8.63;100.00;95147.59;1022860;29;20038;-75
2023/10/24 01:21:54;;;;;;;1.20;1.10;;;;;;;8.63;100.00;95144.97;1022339;29;20022;-77
2023/10/24 01:22:24;;;;;;;0.70;0.70;;;;;;;8.65;100.00;95150.75;1023124;28;20486;-73
2023/10/24 01:22:54;;;;;;;1.30;1.20;;;;;;;8.65;100.00;95145.50;1026871;28;20031;-76
2023/10/24 01:23:28;;;;;;;0.68;0.32;;;;;;;8.48;100.00;95114.41;1022644;28;20027;-74
2023/10/24 01:23:59;;;;;;;2.97;1.48;;;;;;;8.68;100.00;95141.56;1022926;29;20023;-73
2023/10/24 01:24:29;;;;;;;11.30;1.15;;;;;;;8.68;100.00;95134.50;1018457;29;20877;-74
2023/10/24 01:25:00;;;;;;;2.20;1.33;;;;;;;8.68;100.00;95139.72;1014866;29;20108;-74
2023/10/24 01:25:30;;;;;;;1.65;1.27;;;;;;;8.68;100.00;95129.25;1019223;28;20023;-73
2023/10/24 01:26:01;;;;;;;0.68;0.52;;;;;;;8.64;100.00;95125.63;1027087;28;20035;-75
2023/10/24 01:26:31;;;;;;;0.50;0.50;;;;;;;8.65;100.00;95121.97;1018996;29;20027;-73
2023/10/24 01:27:02;;;;;;;1.33;1.23;;;;;;;8.68;100.00;95126.66;1015009;29;20749;-75
2023/10/24 01:27:32;;;;;;;1.70;0.63;;;;;;;8.68;100.00;95126.66;1018900;29;20043;-73
2023/10/24 01:28:03;;;;;;;0.45;0.45;;;;;;;8.70;100.00;95129.78;1022924;29;20034;-74
2023/10/24 01:28:33;;;;;;;0.35;0.35;;;;;;;8.70;100.00;95124.56;1026745;28;20093;-75
2023/10/24 01:29:04;;;;;;;0.30;0.30;;;;;;;8.71;100.00;95130.56;1022886;29;20027;-75
2023/10/24 01:29:35;;;;;;;2.83;0.95;;;;;;;8.71;100.00;95131.34;1022637;29;20027;-73
2023/10/24 01:30:06;;;;;;;1.48;1.23;;;;;;;8.71;100.00;95133.19;1023196;28;20621;-74
2023/10/24 01:30:38;;;;;;;0.55;0.55;;;;;;;8.67;100.00;95132.94;1022732;29;20277;-73
2023/10/24 01:31:08;;;;;;;1.27;1.17;;;;;;;8.70;100.00;95142.88;1018759;29;20028;-75
2023/10/24 01:31:39;;;;;;;0.77;0.70;;;;;;;8.70;100.00;95142.88;1019163;29;20275;-76
2023/10/24 01:32:09;;;;;;;0.80;0.80;;;;;;;8.72;100.00;95140.78;1027544;28;20035;-74
2023/10/24 01:32:40;;;;;;;7.45;1.65;;;;;;;8.73;100.00;95142.34;1031173;28;20026;-73
2023/10/24 01:33:10;;;;;;;0.77;0.50;;;;;;;8.74;100.00;95143.13;1028275;28;20034;-73
2023/10/24 01:33:40;;;;;;;1.00;0.65;;;;;;;8.76;100.00;95141.03;1026694;28;20372;-75
2023/10/24 01:34:12;;;;;;;0.47;0.47;;;;;;;8.76;100.00;95137.63;1024177;28;20023;-74
2023/10/24 01:34:42;;;;;;;0.82;0.82;;;;;;;8.78;100.00;95141.53;1023005;28;20051;-74
2023/10/24 01:35:12;;;;;;;1.92;1.55;;;;;;;8.76;100.00;95135.81;1025333;28;20295;-74
2023/10/24 01:35:43;;;;;;;1.45;0.68;;;;;;;8.78;100.00;95128.44;1026773;28;20095;-75
2023/10/24 01:36:13;;;;;;;0.82;0.77;;;;;;;8.77;100.00;95126.13;1026887;28;20031;-73
2023/10/24 01:36:44;;;;;;;0.63;0.43;;;;;;;8.79;100.00;95126.66;1022850;28;20457;-73
2023/10/24 01:37:14;;;;;;;1.48;1.38;;;;;;;8.79;100.00;95135.28;1026587;28;20029;-74
2023/10/24 01:37:45;;;;;;;0.70;0.70;;;;;;;8.77;100.00;95131.34;1026933;28;20450;-74
2023/10/24 01:38:15;;;;;;;1.58;1.15;;;;;;;8.81;100.00;95145.47;1018792;29;20031;-74
2023/10/24 01:38:45;;;;;;;0.65;0.63;;;;;;;8.81;100.00;95145.47;1022815;28;20034;-75
2023/10/24 01:39:16;;;;;;;0.95;0.95;;;;;;;8.83;100.00;95151.22;1026894;28;20086;-74
2023/10/24 01:39:46;;;;;;;0.98;0.98;;;;;;;8.81;100.00;95145.47;1026150;28;20041;-73
2023/10/24 01:40:17;;;;;;;1.08;0.85;;;;;;;8.83;100.00;95148.59;1030227;28;20040;-73
2023/10/24 01:40:47;;;;;;;0.50;0.50;;;;;;;8.83;100.00;95146.75;1026888;28;20031;-73
2023/10/24 01:41:18;;;;;;;4.53;1.75;;;;;;;8.84;100.00;95142.31;1027147;28;20023;-77
2023/10/24 01:41:49;;;;;;;1.02;0.73;;;;;;;8.84;100.00;95142.31;1022906;29;20039;-74
2023/10/24 01:42:19;;;;;;;0.85;0.85;;;;;;;8.84;100.00;95139.69;1022598;28;20575;-75
2023/10/24 01:42:50;;;;;;;0.73;0.65;;;;;;;8.84;100.00;95137.09;1034728;28;20029;-75
2023/10/24 01:43:20;;;;;;;5.18;2.05;;;;;;;8.85;100.00;95143.88;1030705;28;20030;-73
2023/10/24 01:43:51;;;;;;;1.35;1.25;;;;;;;8.81;100.00;95130.53;1026687;28;20034;-75
2023/10/24 01:44:22;;;;;;;0.52;0.52;;;;;;;8.83;100.00;95127.69;1026911;28;20027;-75
2023/10/24 01:44:52;;;;;;;0.65;0.65;;;;;;;8.86;100.00;95140.22;1026905;28;20270;-74
2023/10/24 01:45:23;;;;;;;0.70;0.70;;;;;;;8.84;100.00;95129.22;1026643;28;20094;-74
2023/10/24 01:45:53;;;;;;;1.13;0.82;;;;;;;8.84;100.00;95130.00;1022779;29;20255;-75
2023/10/24 01:46:23;;;;;;;1.95;1.23;;;;;;;8.89;100.00;95139.69;1030612;28;20600;-75
2023/10/24 01:46:55;;;;;;;2.13;1.77;;;;;;;8.87;100.00;95136.56;1030864;28;20844;-73
2023/10/24 01:47:25;;;;;;;0.73;0.73;;;;;;;8.86;100.00;95129.75;1026702;28;20030;-74
2023/10/24 01:47:56;;;;;;;1.83;1.38;;;;;;;8.86;100.00;95125.31;1026683;28;20265;-74
2023/10/24 01:48:26;;;;;;;0.63;0.63;;;;;;;8.87;100.00;95126.09;1022752;29;20079;-72
2023/10/24 01:48:57;;;;;;;1.70;1.13;;;;;;;8.86;100.00;95130.53;1022745;28;20543;-73
2023/10/24 01:49:27;;;;;;;1.17;1.13;;;;;;;8.88;100.00;95125.03;1030845;28;20018;-75
2023/10/24 01:49:58;;;;;;;0.40;0.40;;;;;;;8.87;100.00;95133.94;1026226;28;20035;-75
2023/10/24 01:50:28;;;;;;;0.50;0.50;;;;;;;8.89;100.00;95131.84;1029691;28;20015;-75
2023/10/24 01:50:59;;;;;;;0.20;0.20;;;;;;;8.89;100.00;95135.25;1027397;28;20105;-73
2023/10/24 01:51:29;;;;;;;0.63;0.63;;;;;;;8.89;100.00;95134.47;1026993;28;20037;-74
2023/10/24 01:52:00;;;;;;;0.68;0.68;;;;;;;8.90;100.00;95136.03;1030691;28;20077;-73
2023/10/24 01:52:31;;;;;;;0.93;0.93;;;;;;;8.90;100.00;95125.56;1030739;28;20033;-77
2023/10/24 01:53:01;;;;;;;0.63;0.63;;;;;;;8.87;100.00;95126.88;1026675;28;20038;-73
2023/10/24 01:53:32;;;;;;;1.83;1.65;;;;;;;8.87;100.00;95121.63;1022698;29;20262;-75
2023/10/24 01:54:02;;;;;;;0.60;0.60;;;;;;;8.89;100.00;95124.78;1022352;29;20490;-76
2023/10/24 01:54:33;;;;;;;2.10;0.98;;;;;;;8.84;100.00;95113.53;1022671;28;20050;-74
2023/10/24 01:55:04;;;;;;;0.40;0.40;;;;;;;8.90;100.00;95126.34;1022758;28;20027;-74
2023/10/24 01:55:34;;;;;;;2.47;2.20;;;;;;;8.91;100.00;95124.50;1018842;29;20032;-74
2023/10/24 01:56:04;;;;;;;1.63;1.52;;;;;;;8.84;100.00;95111.69;1018865;29;20035;-73
2023/10/24 01:56:35;;;;;;;0.73;0.73;;;;;;;8.90;100.00;95122.94;1018757;29;20039;-73
2023/10/24 01:57:05;;;;;;;1.48;1.38;;;;;;;8.90;100.00;95125.56;1018833;28;20381;-75
2023/10/24 01:57:36;;;;;;;0.55;0.55;;;;;;;8.87;100.00;95126.09;1029960;28;20043;-74
2023/10/24 01:58:06;;;;;;;1.50;1.33;;;;;;;8.89;100.00;95124.00;1030761;28;20076;-73
2023/10/24 01:58:37;;;;;;;0.57;0.57;;;;;;;8.89;100.00;95131.84;1026745;28;20030;-73
2023/10/24 01:59:07;;;;;;;0.60;0.60;;;;;;;8.87;100.00;95132.09;1026515;28;20482;-74
2023/10/24 01:59:37;;;;;;;0.98;0.93;;;;;;;8.89;100.00;95129.22;1030143;28;20973;-73
2023/10/24 02:00:08;;;;;;;0.73;0.73;;;;;;;8.89;100.00;95124.78;1030426;28;20093;-74
2023/10/24 02:00:39;;;;;;;2.50;2.30;;;;;;;8.90;100.00;95125.56;1026673;28;20023;-73
2023/10/24 02:01:09;;;;;;;1.65;1.55;;;;;;;8.84;100.00;95116.94;1022528;28;20143;-74
2023/10/24 02:01:41;;;;;;;1.92;1.45;;;;;;;8.88;100.00;95119.81;1026892;28;20031;-78
2023/10/24 02:02:11;;;;;;;1.20;1.20;;;;;;;8.76;100.00;95098.41;1022877;29;20570;-75
2023/10/24 02:02:42;;;;;;;1.20;1.10;;;;;;;8.87;100.00;95119.03;1022956;28;20326;-73
2023/10/24 02:03:12;;;;;;;0.75;0.40;;;;;;;8.88;100.00;95122.41;1026498;28;20035;-74
2023/10/24 02:03:42;;;;;;;1.45;1.35;;;;;;;8.87;100.00;95116.41;1022908;28;20019;-72
2023/10/24 02:04:13;;;;;;;0.95;0.77;;;;;;;8.88;100.00;95122.41;1026845;28;20406;-75
2023/10/24 02:04:43;;;;;;;1.75;1.48;;;;;;;8.85;100.00;95117.72;1024758;28;20113;-73
2023/10/24 02:05:14;;;;;;;1.73;1.63;;;;;;;8.87;100.00;95126.88;1026776;28;20034;-74
2023/10/24 02:05:44;;;;;;;1.45;1.35;;;;;;;8.73;100.00;95105.72;1022894;29;20027;-74
2023/10/24 02:06:15;;;;;;;0.38;0.22;;;;;;;8.88;100.00;95130.25;1028006;28;20026;-73
2023/10/24 02:06:45;;;;;;;1.80;1.70;;;;;;;8.88;100.00;95130.25;1030816;28;20533;-73
2023/10/24 02:07:16;;;;;;;0.60;0.60;;;;;;;8.89;100.00;95134.47;1027485;28;20109;-73
2023/10/24 02:07:46;;;;;;;1.38;1.27;;;;;;;8.89;100.00;95124.78;1026799;28;20050;-72
2023/10/24 02:08:17;;;;;;;1.63;1.17;;;;;;;8.88;100.00;95132.88;1026522;28;20026;-74
2023/10/24 02:08:47;;;;;;;0.60;0.60;;;;;;;8.87;100.00;95126.88;1026670;28;20019;-74
2023/10/24 02:09:18;;;;;;;0.45;0.45;;;;;;;8.89;100.00;95129.22;1022584;28;20027;-74
2023/10/24 02:09:48;;;;;;;1.85;1.13;;;;;;;8.89;100.00;95129.22;1021936;28;20024;-73
2023/10/24 02:10:19;;;;;;;0.47;0.45;;;;;;;8.90;100.00;95130.78;1022706;29;20027;-75
2023/10/24 02:10:50;;;;;;;0.70;0.70;;;;;;;8.89;100.00;95135.25;1026729;28;20871;-75
2023/10/24 02:11:21;;;;;;;2.38;1.33;;;;;;;8.88;100.00;95125.81;1022545;29;20027;-74
2023/10/24 02:11:51;;;;;;;1.85;0.73;;;;;;;8.91;100.00;95127.13;1022638;29;20259;-75
2023/10/24 02:12:22;;;;;;;0.95;0.93;;;;;;;8.92;100.00;95124.25;1023011;28;20031;-76
2023/10/24 02:12:52;;;;;;;7.82;1.42;;;;;;;8.93;100.00;95122.41;1022743;29;20023;-75
2023/10/24 02:13:23;;;;;;;0.70;0.70;;;;;;;8.92;100.00;95115.59;1022601;28;20031;-74
2023/10/24 02:13:53;;;;;;;1.27;0.80;;;;;;;8.93;100.00;95114.56;1022792;29;20019;-74
2023/10/24 02:14:24;;;;;;;0.93;0.77;;;;;;;8.93;100.00;95115.34;1022364;28;20085;-73
2023/10/24 02:14:54;;;;;;;1.52;0.70;;;;;;;8.89;100.00;95116.16;1021020;29;20023;-74
2023/10/24 02:15:25;;;;;;;0.77;0.77;;;;;;;8.93;100.00;95107.50;1018660;28;20075;-74
2023/10/24 02:15:56;;;;;;;1.30;1.20;;;;;;;8.95;100.00;95117.69;1018760;29;20083;-73
2023/10/24 02:16:26;;;;;;;0.65;0.65;;;;;;;8.95;100.00;95123.72;1018449;29;20267;-73
2023/10/24 02:16:57;;;;;;;1.27;1.23;;;;;;;8.96;100.00;95127.13;1018888;29;20035;-75
2023/10/24 02:17:27;;;;;;;0.90;0.90;;;;;;;8.98;100.00;95120.53;1018583;29;20031;-73
2023/10/24 02:17:57;;;;;;;3.65;2.85;;;;;;;8.95;100.00;95123.72;1022628;29;20490;-74
2023/10/24 02:18:28;;;;;;;1.30;1.15;;;;;;;9.00;100.00;95122.13;1018579;29;20612;-74
2023/10/24 02:18:58;;;;;;;1.38;1.27;;;;;;;9.00;100.00;95120.28;1018809;29;20083;-74
2023/10/24 02:19:29;;;;;;;1.38;0.82;;;;;;;8.93;100.00;95114.56;1022817;28;20038;-73
2023/10/24 02:19:59;;;;;;;1.23;1.08;;;;;;;8.99;100.00;95118.72;1026027;28;20126;-74
2023/10/24 02:20:30;;;;;;;1.17;1.08;;;;;;;8.98;100.00;95123.16;1026717;28;20031;-74
2023/10/24 02:21:05;;;;;;;1.00;0.95;;;;;;;8.98;100.00;95128.38;1030605;28;20034;-73
2023/10/24 02:21:36;;;;;;;1.52;0.75;;;;;;;8.98;100.00;95109.28;1022496;28;20027;-74
2023/10/24 02:22:06;;;;;;;0.95;0.95;;;;;;;9.02;100.00;95120.00;1022845;28;20762;-73
2023/10/24 02:22:37;;;;;;;0.60;0.60;;;;;;;9.01;100.00;95118.44;1023006;29;20038;-73
2023/10/24 02:23:07;;;;;;;2.67;0.77;;;;;;;8.98;100.00;95119.75;1021933;29;20031;-74
2023/10/24 02:23:38;;;;;;;0.90;0.70;;;;;;;9.00;100.00;95122.91;1018103;29;20519;-73
2023/10/24 02:24:08;;;;;;;0.70;0.70;;;;;;;9.01;100.00;95118.44;1015285;29;20471;-76
2023/10/24 02:24:39;;;;;;;4.82;1.65;;;;;;;9.01;100.00;95116.63;1027010;28;20031;-73